createdAt,value
2022-11-05T00:00:38.696Z,25.67
2022-11-05T00:03:24.603Z,20.73
2022-11-05T00:06:12.352Z,19.30
2022-11-05T00:09:00.342Z,23.92
2022-11-05T00:11:45.621Z,21.52
2022-11-05T00:14:31.418Z,22.42
2022-11-05T00:16:58.035Z,20.63
2022-11-05T00:19:24.660Z,18.55
2022-11-05T00:22:09.961Z,18.55
2022-11-05T00:24:55.343Z,25.00
2022-11-05T00:27:22.032Z,23.08
2022-11-05T00:29:48.657Z,22.58
2022-11-05T00:32:15.358Z,21.60
2022-11-05T00:34:41.992Z,22.58
2022-11-05T00:37:11.478Z,24.48
2022-11-05T00:39:38.128Z,19.83
2022-11-05T00:42:23.901Z,22.17
2022-11-05T00:45:02.891Z,20.85
2022-11-05T00:48:11.827Z,19.30
2022-11-05T00:50:38.503Z,19.92
2022-11-05T00:53:06.896Z,20.00
2022-11-05T00:55:45.157Z,19.92
2022-11-05T00:58:15.688Z,20.88
2022-11-05T01:00:53.299Z,26.65
2022-11-05T01:03:26.575Z,21.17
2022-11-05T01:05:58.295Z,24.35
2022-11-05T01:08:27.912Z,20.42
2022-11-05T01:10:58.604Z,18.63
2022-11-05T01:13:33.333Z,23.33
2022-11-05T01:16:09.856Z,18.60
2022-11-05T01:18:39.114Z,22.33
2022-11-05T01:21:15.724Z,20.58
2022-11-05T01:23:42.939Z,16.08
2022-11-05T01:26:09.959Z,23.40
2022-11-05T01:28:36.698Z,15.90
2022-11-05T01:31:03.566Z,20.23
2022-11-05T01:33:37.990Z,26.48
2022-11-05T01:36:06.265Z,19.52
2022-11-05T01:38:32.966Z,25.23
2022-11-05T01:40:59.572Z,18.73
2022-11-05T01:43:26.238Z,26.60
2022-11-05T01:45:58.794Z,22.08
2022-11-05T01:48:35.519Z,20.38
2022-11-05T01:51:14.764Z,22.30
2022-11-05T01:54:04.758Z,14.40
2022-11-05T01:56:45.055Z,19.13
2022-11-05T01:59:35.011Z,20.10
2022-11-05T02:02:05.586Z,21.10
2022-11-05T02:04:41.555Z,18.65
2022-11-05T02:07:14.335Z,20.02
2022-11-05T02:10:06.509Z,20.95
2022-11-05T02:12:37.505Z,18.58
2022-11-05T02:15:06.099Z,20.38
2022-11-05T02:18:34.539Z,20.70
2022-11-05T02:21:41.185Z,25.83
2022-11-05T02:24:56.391Z,17.48
2022-11-05T02:27:58.461Z,17.00
2022-11-05T02:31:01.790Z,22.27
2022-11-05T02:33:56.637Z,22.08
2022-11-05T02:36:46.414Z,18.35
2022-11-05T02:39:48.920Z,28.73
2022-11-05T02:43:17.414Z,24.70
2022-11-05T02:46:18.049Z,22.92
2022-11-05T02:48:52.496Z,21.25
2022-11-05T02:52:03.193Z,23.60
2022-11-05T02:55:10.328Z,26.60
2022-11-05T02:57:37.653Z,21.33
2022-11-05T03:00:42.996Z,22.52
2022-11-05T03:06:43.060Z,18.88
2022-11-05T03:09:43.186Z,21.55
2022-11-05T03:13:07.111Z,22.17
2022-11-05T03:15:59.958Z,19.23
2022-11-05T03:19:06.788Z,18.35
2022-11-05T03:22:15.285Z,30.77
2022-11-05T03:24:55.447Z,24.40
2022-11-05T03:27:40.850Z,26.52
2022-11-05T03:30:14.337Z,24.25
2022-11-05T03:32:54.820Z,27.90
2022-11-05T03:35:35.216Z,29.90
2022-11-05T03:38:12.899Z,26.75
2022-11-05T03:40:44.802Z,23.50
2022-11-05T03:43:14.562Z,32.38
2022-11-05T03:45:53.672Z,34.78
2022-11-05T03:48:29.306Z,24.10
2022-11-05T03:51:19.560Z,25.42
2022-11-05T03:54:07.509Z,25.40
2022-11-05T03:57:09.006Z,27.95
2022-11-05T03:59:47.912Z,22.85
2022-11-05T04:02:20.169Z,31.85
2022-11-05T04:04:47.824Z,27.35
2022-11-05T04:07:33.769Z,26.10
2022-11-05T04:10:19.089Z,27.58
2022-11-05T04:13:04.356Z,29.65
2022-11-05T04:15:54.161Z,29.75
2022-11-05T04:18:23.980Z,28.45
2022-11-05T04:21:09.031Z,29.42
2022-11-05T04:23:54.563Z,27.73
2022-11-05T04:26:23.328Z,26.15
2022-11-05T04:29:10.988Z,30.55
2022-11-05T04:31:38.611Z,29.17
2022-11-05T04:34:05.906Z,25.83
2022-11-05T04:36:35.564Z,32.53
2022-11-05T04:39:04.996Z,28.35
2022-11-05T04:41:34.726Z,31.85
2022-11-05T04:44:01.474Z,27.15
2022-11-05T04:46:28.266Z,28.33
2022-11-05T04:48:54.899Z,35.63
2022-11-05T04:51:21.624Z,31.30
2022-11-05T04:53:48.266Z,28.33
2022-11-05T04:56:25.507Z,32.75
2022-11-05T04:58:52.955Z,36.58
2022-11-05T05:01:25.220Z,27.00
2022-11-05T05:03:54.250Z,38.03
2022-11-05T05:06:24.879Z,28.77
2022-11-05T05:08:52.355Z,36.78
2022-11-05T05:11:22.660Z,34.42
2022-11-05T05:13:50.511Z,32.25
2022-11-05T05:16:33.872Z,32.85
2022-11-05T06:59:10.130Z,19.08
2022-11-05T07:01:37.610Z,10.57
2022-11-05T07:04:05.163Z,17.23
2022-11-05T07:11:54.981Z,16.58
2022-11-05T09:03:42.575Z,5.85
2022-11-05T09:06:12.140Z,5.07
2022-11-05T09:08:38.927Z,8.68
2022-11-05T09:11:05.974Z,6.38
2022-11-05T09:13:32.667Z,5.55
2022-11-05T09:15:59.993Z,6.30
2022-11-05T09:18:26.909Z,8.50
2022-11-05T09:20:53.806Z,6.57
2022-11-05T09:23:20.603Z,6.95
2022-11-05T09:25:47.940Z,5.80
2022-11-05T09:28:22.123Z,5.72
2022-11-05T09:30:57.039Z,9.82
2022-11-05T09:33:27.472Z,4.22
2022-11-05T09:35:54.423Z,4.00
2022-11-05T09:38:26.181Z,5.40
2022-11-05T09:41:09.219Z,4.53
2022-11-05T09:43:49.058Z,5.00
2022-11-05T09:46:25.563Z,6.20
2022-11-05T09:49:04.292Z,4.07
2022-11-05T14:33:26.385Z,4.18
2022-11-05T14:36:20.356Z,3.75
2022-11-05T14:39:00.033Z,5.67
2022-11-05T17:13:28.610Z,6.63
2022-11-05T17:15:56.653Z,5.10
2022-11-05T17:18:24.202Z,4.72
2022-11-05T17:20:55.305Z,5.90
2022-11-05T17:23:26.763Z,6.43
2022-11-05T17:26:01.852Z,13.15
2022-11-05T17:58:17.528Z,5.70
2022-11-05T18:06:07.549Z,10.23
2022-11-05T18:43:32.382Z,6.93
2022-11-05T18:45:59.206Z,8.20
2022-11-05T18:48:26.080Z,11.07
2022-11-05T18:53:33.400Z,7.05
2022-11-05T19:41:57.706Z,10.18
2022-11-05T19:44:28.723Z,12.02
2022-11-05T19:46:55.552Z,8.52
